createdAt,value
2023-10-17T00:01:37.337Z,9.64
2023-10-17T00:04:19.237Z,9.63
2023-10-17T00:07:00.124Z,9.60
2023-10-17T00:09:27.182Z,9.62
2023-10-17T00:11:56.526Z,9.53
2023-10-17T00:14:29.134Z,9.57
2023-10-17T00:16:58.872Z,9.59
2023-10-17T00:19:32.794Z,9.55
2023-10-17T00:22:05.516Z,9.56
2023-10-17T00:24:32.374Z,9.58
2023-10-17T00:26:59.453Z,9.60
2023-10-17T00:29:27.834Z,9.58
2023-10-17T00:31:55.357Z,9.60
2023-10-17T00:34:26.791Z,9.60
2023-10-17T00:37:07.941Z,9.60
2023-10-17T00:39:34.690Z,9.70
2023-10-17T00:42:08.835Z,9.67
2023-10-17T00:44:40.054Z,9.60
2023-10-17T00:47:20.273Z,9.56
2023-10-17T00:49:47.360Z,9.59
2023-10-17T00:52:30.565Z,9.62
2023-10-17T00:54:58.555Z,9.60
2023-10-17T00:57:28.715Z,9.51
2023-10-17T01:00:10.381Z,9.47
2023-10-17T01:02:46.477Z,9.49
2023-10-17T01:05:13.599Z,9.44
2023-10-17T01:07:43.194Z,9.42
2023-10-17T01:10:19.272Z,9.38
2023-10-17T01:13:04.048Z,9.41
2023-10-17T01:15:34.279Z,9.42
2023-10-17T01:18:07.078Z,9.49
2023-10-17T01:20:35.433Z,9.57
2023-10-17T01:23:02.529Z,9.54
2023-10-17T01:25:39.913Z,9.51
2023-10-17T01:28:08.163Z,9.50
2023-10-17T01:30:34.966Z,9.51
2023-10-17T01:33:01.985Z,9.47
2023-10-17T01:35:28.899Z,9.45
2023-10-17T01:37:57.270Z,9.43
2023-10-17T01:40:24.948Z,9.39
2023-10-17T01:42:52.572Z,9.36
2023-10-17T01:45:24.917Z,9.36
2023-10-17T01:47:55.560Z,9.41
2023-10-17T01:50:25.642Z,9.49
2023-10-17T01:52:55.732Z,9.45
2023-10-17T01:55:27.662Z,9.44
2023-10-17T01:58:01.458Z,9.48
2023-10-17T02:00:39.481Z,9.43
2023-10-17T02:03:14.146Z,9.43
2023-10-17T02:05:41.197Z,9.45
2023-10-17T02:08:08.190Z,9.33
2023-10-17T02:10:35.211Z,9.44
2023-10-17T02:13:05.445Z,9.41
2023-10-17T02:15:32.278Z,9.43
2023-10-17T02:17:59.445Z,9.46
2023-10-17T02:20:29.188Z,9.30
2023-10-17T02:23:01.037Z,9.34
2023-10-17T02:25:36.722Z,9.38
2023-10-17T02:28:03.903Z,9.41
2023-10-17T02:30:31.033Z,9.44
2023-10-17T02:32:58.137Z,9.36
2023-10-17T02:35:41.353Z,9.28
2023-10-17T02:38:09.864Z,9.38
2023-10-17T02:40:41.809Z,9.31
2023-10-17T02:43:14.358Z,9.31
2023-10-17T02:45:43.398Z,9.27
2023-10-17T02:48:27.661Z,9.25
2023-10-17T02:51:00.501Z,9.27
2023-10-17T02:53:31.504Z,9.23
2023-10-17T02:55:58.929Z,9.21
2023-10-17T02:58:25.678Z,9.18
2023-10-17T03:00:52.612Z,9.26
2023-10-17T03:03:21.375Z,9.29
2023-10-17T03:05:54.917Z,9.29
2023-10-17T03:08:22.523Z,9.19
2023-10-17T03:10:56.994Z,9.23
2023-10-17T03:13:25.142Z,9.14
2023-10-17T03:15:56.838Z,9.09
2023-10-17T03:18:24.173Z,9.16
2023-10-17T03:20:55.453Z,9.11
2023-10-17T03:23:29.691Z,9.16
2023-10-17T03:26:06.274Z,9.14
2023-10-17T03:28:35.886Z,9.09
2023-10-17T03:31:12.106Z,9.07
2023-10-17T03:33:43.969Z,9.04
2023-10-17T03:36:31.318Z,9.06
2023-10-17T03:39:15.934Z,9.08
2023-10-17T03:41:43.065Z,9.11
2023-10-17T03:44:09.908Z,9.15
2023-10-17T03:46:37.083Z,9.16
2023-10-17T03:49:05.570Z,9.19
2023-10-17T03:51:32.777Z,9.12
2023-10-17T03:54:08.719Z,9.05
2023-10-17T03:56:47.340Z,9.15
2023-10-17T03:59:14.718Z,9.14
2023-10-17T04:01:42.903Z,9.12
2023-10-17T04:04:21.122Z,9.06
2023-10-17T04:06:58.019Z,9.18
2023-10-17T04:09:29.201Z,9.18
2023-10-17T04:12:05.025Z,9.21
2023-10-17T04:14:51.796Z,9.25
2023-10-17T04:17:24.862Z,9.22
2023-10-17T04:20:00.559Z,9.22
2023-10-17T04:22:30.863Z,9.26
2023-10-17T04:25:02.466Z,9.21
2023-10-17T04:27:36.236Z,9.26
2023-10-17T04:30:09.233Z,9.27
2023-10-17T04:32:40.021Z,9.28
2023-10-17T04:35:08.516Z,9.19
2023-10-17T04:37:46.344Z,9.16
2023-10-17T04:40:38.738Z,9.20
2023-10-17T04:43:40.699Z,9.11
2023-10-17T04:46:10.009Z,9.16
2023-10-17T04:48:37.705Z,9.22
2023-10-17T04:51:21.413Z,9.17
2023-10-17T04:53:51.688Z,9.17
2023-10-17T04:56:23.279Z,9.13
2023-10-17T04:58:50.775Z,9.15
2023-10-17T05:01:44.069Z,9.21
2023-10-17T05:04:34.058Z,9.23
2023-10-17T05:07:00.990Z,9.26
2023-10-17T05:09:36.821Z,9.28
2023-10-17T05:12:29.879Z,9.21
2023-10-17T05:15:15.254Z,9.16
2023-10-17T05:18:00.824Z,9.15
2023-10-17T05:20:46.168Z,9.10
2023-10-17T05:23:37.207Z,9.14
2023-10-17T05:26:26.722Z,9.15
2023-10-17T05:29:13.151Z,9.11
2023-10-17T05:32:00.910Z,8.73
2023-10-17T05:34:49.286Z,8.70
2023-10-17T05:37:34.833Z,8.62
2023-10-17T05:40:20.086Z,8.58
2023-10-17T05:43:08.995Z,8.70
2023-10-17T05:45:54.475Z,8.81
2023-10-17T05:48:41.141Z,8.80
2023-10-17T05:51:26.742Z,8.72
2023-10-17T05:54:40.563Z,8.61
2023-10-17T05:57:17.943Z,8.57
2023-10-17T06:00:03.260Z,8.58
2023-10-17T06:02:48.661Z,8.59
2023-10-17T06:05:34.068Z,8.65
2023-10-17T06:08:19.508Z,8.69
2023-10-17T06:11:37.165Z,8.72
2023-10-17T06:14:22.576Z,8.81
2023-10-17T06:16:55.295Z,8.82
2023-10-17T06:19:22.932Z,8.85
2023-10-17T06:22:01.946Z,8.91
2023-10-17T06:24:29.830Z,8.83
2023-10-17T06:26:59.443Z,8.86
2023-10-17T06:29:34.221Z,8.87
2023-10-17T06:32:18.619Z,8.92
2023-10-17T06:34:46.749Z,8.82
2023-10-17T06:37:20.772Z,8.85
2023-10-17T06:39:48.729Z,8.94
2023-10-17T06:42:16.309Z,8.89
2023-10-17T06:44:55.948Z,8.87
2023-10-17T06:47:31.910Z,8.95
2023-10-17T06:50:14.459Z,8.94
2023-10-17T06:52:53.715Z,8.99
2023-10-17T06:55:30.171Z,8.92
2023-10-17T06:57:59.210Z,8.94
2023-10-17T07:00:26.660Z,9.08
2023-10-17T07:02:58.115Z,9.09
2023-10-17T07:05:25.729Z,9.01
2023-10-17T07:07:55.831Z,8.81
2023-10-17T07:10:25.354Z,8.80
2023-10-17T07:13:29.837Z,8.81
2023-10-17T07:15:56.828Z,8.84
2023-10-17T07:18:42.411Z,8.78
2023-10-17T07:21:15.220Z,8.88
2023-10-17T07:23:46.776Z,8.89
2023-10-17T07:26:19.151Z,8.98
2023-10-17T07:28:46.227Z,9.04
2023-10-17T07:31:13.037Z,9.09
2023-10-17T07:33:43.582Z,9.04
2023-10-17T07:36:17.516Z,9.08
2023-10-17T07:38:47.025Z,9.16
2023-10-17T07:41:34.031Z,9.17
2023-10-17T07:44:10.219Z,9.24
2023-10-17T07:46:39.924Z,9.33
2023-10-17T07:49:06.856Z,9.30
2023-10-17T07:51:36.611Z,9.36
2023-10-17T07:54:09.034Z,9.37
2023-10-17T07:56:35.944Z,9.30
2023-10-17T07:59:10.030Z,9.27
2023-10-17T08:01:43.677Z,9.24
2023-10-17T08:04:17.146Z,9.31
2023-10-17T08:06:44.683Z,9.29
2023-10-17T08:09:39.655Z,9.25
2023-10-17T08:12:14.182Z,9.33
2023-10-17T08:14:43.909Z,9.37
2023-10-17T08:17:11.105Z,9.53
2023-10-17T08:19:58.012Z,9.55
2023-10-17T08:22:28.350Z,9.50
2023-10-17T08:24:55.249Z,9.39
2023-10-17T08:27:25.470Z,9.35
2023-10-17T08:30:10.997Z,9.29
2023-10-17T08:32:40.940Z,9.35
2023-10-17T08:35:27.441Z,9.23
2023-10-17T08:37:54.138Z,9.11
2023-10-17T08:40:39.156Z,9.12
2023-10-17T08:43:07.939Z,9.09
2023-10-17T08:45:38.821Z,9.12
2023-10-17T08:48:07.713Z,9.21
2023-10-17T08:50:41.186Z,9.33
2023-10-17T08:53:21.467Z,9.28
2023-10-17T08:55:53.024Z,9.32
2023-10-17T08:58:26.438Z,9.45
2023-10-17T09:01:09.021Z,9.53
2023-10-17T09:03:39.761Z,9.55
2023-10-17T09:06:29.920Z,9.63
2023-10-17T09:08:57.495Z,9.70
2023-10-17T09:11:43.202Z,9.83
2023-10-17T09:14:28.796Z,9.91
2023-10-17T09:17:19.523Z,10.00
2023-10-17T09:19:48.162Z,10.04
2023-10-17T09:22:16.549Z,10.04
2023-10-17T09:24:51.364Z,10.06
2023-10-17T09:27:20.050Z,10.13
2023-10-17T09:29:57.387Z,10.23
2023-10-17T09:32:39.128Z,10.32
2023-10-17T09:35:15.672Z,10.41
2023-10-17T09:37:47.108Z,10.46
2023-10-17T09:40:19.840Z,10.48
2023-10-17T09:42:47.416Z,10.55
2023-10-17T09:45:32.579Z,10.57
2023-10-17T09:48:07.086Z,10.66
2023-10-17T09:50:36.270Z,10.72
2023-10-17T09:53:18.990Z,10.80
2023-10-17T09:55:51.773Z,10.82
2023-10-17T09:58:29.538Z,10.86
2023-10-17T10:01:01.780Z,10.96
2023-10-17T10:03:30.123Z,11.08
2023-10-17T10:06:25.081Z,11.13
2023-10-17T10:09:07.956Z,11.20
2023-10-17T10:11:50.315Z,11.27
2023-10-17T10:14:36.771Z,11.38
2023-10-17T10:17:07.310Z,11.45
2023-10-17T10:19:43.471Z,11.60
2023-10-17T10:22:15.614Z,11.71
2023-10-17T10:24:44.152Z,11.86
2023-10-17T10:27:26.626Z,12.08
2023-10-17T10:29:55.964Z,12.29
2023-10-17T10:32:34.553Z,12.57
2023-10-17T10:35:06.605Z,12.96
2023-10-17T10:37:55.092Z,13.69
2023-10-17T10:40:27.648Z,14.21
2023-10-17T10:42:57.544Z,14.78
2023-10-17T10:45:49.475Z,15.59
2023-10-17T10:48:23.891Z,15.85
2023-10-17T10:50:57.059Z,15.81
2023-10-17T10:53:34.666Z,16.62
2023-10-17T10:56:11.924Z,17.02
2023-10-17T10:58:54.693Z,17.22
2023-10-17T11:01:22.380Z,17.64
2023-10-17T11:03:54.871Z,17.81
2023-10-17T11:06:26.822Z,17.78
2023-10-17T11:08:56.673Z,17.85
2023-10-17T11:11:23.989Z,18.19
2023-10-17T11:13:52.515Z,18.64
2023-10-17T11:16:22.277Z,18.66
2023-10-17T11:18:49.713Z,18.85
2023-10-17T11:21:24.700Z,18.58
2023-10-17T11:23:58.716Z,18.70
2023-10-17T11:26:29.397Z,18.11
2023-10-17T11:28:57.751Z,17.92
2023-10-17T11:31:30.841Z,17.99
2023-10-17T11:34:06.113Z,18.28
2023-10-17T11:36:50.009Z,18.28
2023-10-17T11:39:17.114Z,17.68
2023-10-17T11:41:57.417Z,17.03
2023-10-17T11:44:26.164Z,16.41
2023-10-17T11:47:02.577Z,16.08
2023-10-17T11:49:34.796Z,16.32
2023-10-17T11:52:13.886Z,16.45
2023-10-17T11:55:05.299Z,16.78
2023-10-17T11:57:35.032Z,16.92
2023-10-17T12:00:21.491Z,17.32
2023-10-17T12:02:49.512Z,17.36
2023-10-17T12:05:21.304Z,17.22
2023-10-17T12:07:56.782Z,16.67
2023-10-17T12:10:25.923Z,16.00
2023-10-17T12:12:54.197Z,15.81
2023-10-17T12:15:23.850Z,15.90
2023-10-17T12:17:51.537Z,15.94
2023-10-17T12:20:20.827Z,16.04
2023-10-17T12:22:48.092Z,16.38
2023-10-17T12:25:18.032Z,16.30
2023-10-17T12:27:51.496Z,16.20
2023-10-17T12:30:24.251Z,16.22
2023-10-17T12:32:51.339Z,16.34
2023-10-17T12:35:22.874Z,16.10
2023-10-17T12:37:53.915Z,15.96
2023-10-17T12:40:20.643Z,15.84
2023-10-17T12:42:48.040Z,15.78
2023-10-17T12:45:19.067Z,15.83
2023-10-17T12:47:52.218Z,16.00
2023-10-17T12:50:21.864Z,16.09
2023-10-17T12:52:48.844Z,16.13
2023-10-17T12:55:15.744Z,16.42
2023-10-17T12:57:44.578Z,16.35
2023-10-17T13:00:12.942Z,16.02
2023-10-17T13:02:40.766Z,16.20
2023-10-17T13:05:12.196Z,16.58
2023-10-17T13:07:40.207Z,16.55
2023-10-17T13:10:08.695Z,16.47
2023-10-17T13:12:36.066Z,16.54
2023-10-17T13:15:02.968Z,16.58
2023-10-17T13:17:30.179Z,16.65
2023-10-17T13:19:59.052Z,16.89
2023-10-17T13:22:26.500Z,16.73
2023-10-17T13:24:53.740Z,16.62
2023-10-17T13:27:23.149Z,16.59
2023-10-17T13:29:54.212Z,16.20
2023-10-17T13:32:20.900Z,16.16
2023-10-17T13:34:48.092Z,16.03
2023-10-17T13:37:14.835Z,16.22
2023-10-17T13:39:45.173Z,16.35
2023-10-17T13:42:12.099Z,16.50
2023-10-17T13:44:38.925Z,17.01
2023-10-17T13:47:09.037Z,16.77
2023-10-17T13:49:35.946Z,16.37
2023-10-17T13:52:04.970Z,16.23
2023-10-17T13:54:38.882Z,15.81
2023-10-17T13:57:08.436Z,15.88
2023-10-17T13:59:41.190Z,16.21
2023-10-17T14:02:08.206Z,15.95
2023-10-17T14:04:38.409Z,16.42
2023-10-17T14:07:05.481Z,17.03
2023-10-17T14:09:32.533Z,17.38
2023-10-17T14:12:00.702Z,17.57
2023-10-17T14:14:29.414Z,17.18
2023-10-17T14:16:58.060Z,16.89
2023-10-17T14:19:36.731Z,16.46
2023-10-17T14:22:10.321Z,16.53
2023-10-17T14:24:55.539Z,16.89
2023-10-17T14:27:31.153Z,16.66
2023-10-17T14:30:01.678Z,16.43
2023-10-17T14:32:29.879Z,16.43
2023-10-17T14:35:00.688Z,16.12
2023-10-17T14:37:29.211Z,15.79
2023-10-17T14:39:56.370Z,15.66
2023-10-17T14:42:23.470Z,15.68
2023-10-17T14:44:53.684Z,15.78
2023-10-17T14:47:23.795Z,15.66
2023-10-17T14:49:50.663Z,15.79
2023-10-17T14:52:22.061Z,15.28
2023-10-17T14:54:50.052Z,15.34
2023-10-17T14:57:18.981Z,15.70
2023-10-17T14:59:46.419Z,16.49
2023-10-17T15:02:16.127Z,17.42
2023-10-17T15:04:43.532Z,18.03
2023-10-17T15:07:10.729Z,17.91
2023-10-17T15:09:37.778Z,17.84
2023-10-17T15:12:05.376Z,18.04
2023-10-17T15:14:34.922Z,18.18
2023-10-17T15:17:01.839Z,17.69
2023-10-17T15:19:30.462Z,16.98
2023-10-17T15:21:58.301Z,16.16
2023-10-17T15:24:30.076Z,15.59
2023-10-17T15:26:59.973Z,14.91
2023-10-17T15:29:27.223Z,14.56
2023-10-17T15:31:56.343Z,14.25
2023-10-17T15:34:24.979Z,14.25
2023-10-17T15:36:53.184Z,14.23
2023-10-17T15:39:27.150Z,14.17
2023-10-17T15:41:54.702Z,14.24
2023-10-17T15:44:21.795Z,14.15
2023-10-17T15:46:50.130Z,14.25
2023-10-17T15:49:17.912Z,14.27
2023-10-17T15:51:44.868Z,14.07
2023-10-17T15:54:11.839Z,13.87
2023-10-17T15:56:38.763Z,13.87
2023-10-17T15:59:09.910Z,13.72
2023-10-17T16:01:42.474Z,13.66
2023-10-17T16:04:10.877Z,13.59
2023-10-17T16:06:39.921Z,13.54
2023-10-17T16:09:08.722Z,13.38
2023-10-17T16:11:35.523Z,13.21
2023-10-17T16:14:09.146Z,12.94
2023-10-17T16:16:38.016Z,12.95
2023-10-17T16:19:08.140Z,12.98
2023-10-17T16:21:39.087Z,12.90
2023-10-17T16:24:08.277Z,12.90
2023-10-17T16:26:36.845Z,12.85
2023-10-17T16:29:03.686Z,12.79
2023-10-17T16:31:30.564Z,12.80
2023-10-17T16:33:57.455Z,12.75
2023-10-17T16:36:24.229Z,12.76
2023-10-17T16:38:50.957Z,12.74
2023-10-17T16:41:17.764Z,12.71
2023-10-17T16:43:44.625Z,12.58
2023-10-17T16:46:13.242Z,12.59
2023-10-17T16:48:40.207Z,12.70
2023-10-17T16:51:07.044Z,12.79
2023-10-17T16:53:37.285Z,12.88
2023-10-17T16:56:05.210Z,12.81
2023-10-17T16:58:35.744Z,12.87
2023-10-17T17:01:07.592Z,12.85
2023-10-17T17:03:34.591Z,12.86
2023-10-17T17:06:07.105Z,12.77
2023-10-17T17:08:35.705Z,12.72
2023-10-17T17:11:06.420Z,12.74
2023-10-17T17:13:34.980Z,12.74
2023-10-17T17:16:02.917Z,12.75
2023-10-17T17:18:46.551Z,12.68
2023-10-17T17:21:24.222Z,12.86
2023-10-17T17:23:51.165Z,12.74
2023-10-17T17:26:18.481Z,12.79
2023-10-17T17:28:45.631Z,12.70
2023-10-17T17:31:12.640Z,12.64
2023-10-17T17:33:39.530Z,12.59
2023-10-17T17:36:07.968Z,12.57
2023-10-17T17:38:36.605Z,12.52
2023-10-17T17:41:06.986Z,12.47
2023-10-17T17:43:33.995Z,12.38
2023-10-17T17:46:01.109Z,12.36
2023-10-17T17:48:28.106Z,12.29
2023-10-17T17:50:56.773Z,12.30
2023-10-17T17:53:26.559Z,12.23
2023-10-17T17:55:53.473Z,12.04
2023-10-17T17:58:20.328Z,12.01
2023-10-17T18:00:54.610Z,12.10
2023-10-17T18:03:21.840Z,12.11
2023-10-17T18:05:49.123Z,12.10
2023-10-17T18:08:18.109Z,12.10
2023-10-17T18:10:46.490Z,12.12
2023-10-17T18:13:13.927Z,12.13
2023-10-17T18:15:41.533Z,12.03
2023-10-17T18:18:08.673Z,12.02
2023-10-17T18:20:35.952Z,11.95
2023-10-17T18:23:02.859Z,11.89
2023-10-17T18:25:32.148Z,11.89
2023-10-17T18:27:59.257Z,11.83
2023-10-17T18:30:26.242Z,11.78
2023-10-17T18:32:53.217Z,11.74
2023-10-17T18:35:20.014Z,11.77
2023-10-17T18:37:49.935Z,11.78
2023-10-17T18:40:17.212Z,11.71
2023-10-17T18:42:44.225Z,11.75
2023-10-17T18:45:16.121Z,11.67
2023-10-17T18:47:43.806Z,11.64
2023-10-17T18:50:12.365Z,11.61
2023-10-17T18:52:39.294Z,11.53
2023-10-17T18:55:12.544Z,11.57
2023-10-17T18:57:43.500Z,11.56
2023-10-17T19:00:19.770Z,11.56
2023-10-17T19:02:50.652Z,11.48
2023-10-17T19:05:17.680Z,11.37
2023-10-17T19:07:44.761Z,11.36
2023-10-17T19:10:15.908Z,11.38
2023-10-17T19:12:52.251Z,11.37
2023-10-17T19:15:21.609Z,11.42
2023-10-17T19:17:50.790Z,11.34
2023-10-17T19:20:17.813Z,11.34
2023-10-17T19:22:44.634Z,11.31
2023-10-17T19:25:12.334Z,11.32
2023-10-17T19:27:39.727Z,11.30
2023-10-17T19:30:08.781Z,11.30
2023-10-17T19:32:35.663Z,11.23
2023-10-17T19:35:03.737Z,11.21
2023-10-17T19:37:30.906Z,11.19
2023-10-17T19:39:57.670Z,11.20
2023-10-17T19:42:24.472Z,11.19
2023-10-17T19:44:51.199Z,11.15
2023-10-17T19:47:17.963Z,11.12
2023-10-17T19:49:45.964Z,11.12
2023-10-17T19:52:12.777Z,11.10
2023-10-17T19:54:39.787Z,11.07
2023-10-17T19:57:06.644Z,11.04
2023-10-17T19:59:33.484Z,10.92
2023-10-17T20:02:01.457Z,10.85
2023-10-17T20:04:31.330Z,10.73
2023-10-17T20:06:59.847Z,10.76
2023-10-17T20:09:27.926Z,10.85
2023-10-17T20:11:55.444Z,10.96
2023-10-17T20:14:22.542Z,10.82
2023-10-17T20:16:49.565Z,10.81
2023-10-17T20:19:16.459Z,10.81
2023-10-17T20:21:43.240Z,10.68
2023-10-17T20:24:12.224Z,10.77
2023-10-17T20:26:40.788Z,10.83
2023-10-17T20:29:10.798Z,10.73
2023-10-17T20:31:38.761Z,10.78
2023-10-17T20:34:05.831Z,10.84
2023-10-17T20:36:32.809Z,10.85
2023-10-17T20:38:59.647Z,10.77
2023-10-17T20:41:29.070Z,10.71
2023-10-17T20:43:56.208Z,10.64
2023-10-17T20:46:24.510Z,10.66
2023-10-17T20:48:54.343Z,10.62
2023-10-17T20:51:21.138Z,10.57
2023-10-17T20:53:48.254Z,10.63
2023-10-17T20:56:26.134Z,10.69
2023-10-17T20:59:01.660Z,10.53
2023-10-17T21:01:28.462Z,10.49
2023-10-17T21:03:56.486Z,10.45
2023-10-17T21:06:23.668Z,10.43
2023-10-17T21:08:50.780Z,10.50
2023-10-17T21:11:19.100Z,10.49
2023-10-17T21:13:46.895Z,10.51
2023-10-17T21:16:14.091Z,10.38
2023-10-17T21:18:40.972Z,10.36
2023-10-17T21:21:10.691Z,10.33
2023-10-17T21:23:37.560Z,10.33
2023-10-17T21:26:05.200Z,10.28
2023-10-17T21:28:32.464Z,10.27
2023-10-17T21:31:03.779Z,10.31
2023-10-17T21:33:33.321Z,10.30
2023-10-17T21:36:00.766Z,10.27
2023-10-17T21:38:27.799Z,10.15
2023-10-17T21:41:00.653Z,10.09
2023-10-17T21:43:27.997Z,10.09
2023-10-17T21:45:54.828Z,10.10
2023-10-17T21:48:22.271Z,10.04
2023-10-17T21:51:03.610Z,10.11
2023-10-17T21:53:38.471Z,10.15
2023-10-17T21:56:07.207Z,10.02
2023-10-17T21:58:34.547Z,10.00
2023-10-17T22:01:04.302Z,9.89
2023-10-17T22:03:33.153Z,9.87
2023-10-17T22:06:03.078Z,9.81
2023-10-17T22:08:29.851Z,9.78
2023-10-17T22:10:56.722Z,9.90
2023-10-17T22:13:23.540Z,9.86
2023-10-17T22:15:50.857Z,9.80
2023-10-17T22:18:17.742Z,9.74
2023-10-17T22:20:44.579Z,9.82
2023-10-17T22:23:12.871Z,9.84
2023-10-17T22:25:39.696Z,9.83
2023-10-17T22:28:06.551Z,9.83
2023-10-17T22:30:34.208Z,9.68
2023-10-17T22:33:00.994Z,9.72
2023-10-17T22:35:28.182Z,9.77
2023-10-17T22:37:55.532Z,9.70
2023-10-17T22:40:22.424Z,9.55
2023-10-17T22:42:52.615Z,9.57
2023-10-17T22:45:19.655Z,9.64
2023-10-17T22:47:47.187Z,9.63
2023-10-17T22:50:14.330Z,9.59
2023-10-17T22:52:41.330Z,9.69
2023-10-17T22:55:11.179Z,9.71
2023-10-17T22:57:38.402Z,9.76
2023-10-17T23:00:09.418Z,9.71
2023-10-17T23:02:36.251Z,9.69
2023-10-17T23:05:03.268Z,9.64
2023-10-17T23:07:30.156Z,9.59
2023-10-17T23:09:56.952Z,9.53
2023-10-17T23:12:23.746Z,9.49
2023-10-17T23:14:50.604Z,9.49
2023-10-17T23:17:17.636Z,9.47
2023-10-17T23:19:44.421Z,9.48
2023-10-17T23:22:11.251Z,9.48
2023-10-17T23:24:38.133Z,9.53
2023-10-17T23:27:06.884Z,9.47
2023-10-17T23:29:33.625Z,9.42
2023-10-17T23:32:00.391Z,9.43
2023-10-17T23:34:28.257Z,9.39
2023-10-17T23:36:55.011Z,9.35
2023-10-17T23:39:25.190Z,9.35
2023-10-17T23:41:52.345Z,9.43
2023-10-17T23:44:19.248Z,9.35
2023-10-17T23:46:46.115Z,9.33
2023-10-17T23:49:13.057Z,9.36
2023-10-17T23:51:39.993Z,9.18
2023-10-17T23:54:07.395Z,9.27
2023-10-17T23:56:34.930Z,9.35
2023-10-17T23:59:02.551Z,9.33
